createdAt,value
2022-09-15T00:00:12.616Z,95.81
2022-09-15T00:02:39.432Z,95.51
2022-09-15T00:05:06.307Z,95.47
2022-09-15T00:07:32.905Z,95.46
2022-09-15T00:09:59.642Z,94.96
2022-09-15T00:12:27.668Z,94.69
2022-09-15T00:14:54.508Z,94.73
2022-09-15T00:17:21.442Z,94.44
2022-09-15T00:19:48.443Z,94.42
2022-09-15T00:22:15.302Z,94.02
2022-09-15T00:24:42.195Z,94.03
2022-09-15T00:27:08.914Z,93.78
2022-09-15T00:29:36.519Z,93.68
2022-09-15T00:32:03.826Z,93.39
2022-09-15T00:34:30.383Z,93.70
2022-09-15T00:36:57.108Z,94.64
2022-09-15T00:39:23.690Z,94.28
2022-09-15T00:41:50.402Z,94.25
2022-09-15T00:44:17.251Z,94.17
2022-09-15T00:47:04.258Z,94.65
2022-09-15T00:49:39.155Z,94.57
2022-09-15T00:52:14.315Z,94.05
2022-09-15T00:54:55.152Z,93.85
2022-09-15T00:57:27.559Z,93.54
2022-09-15T00:59:56.747Z,94.15
2022-09-15T01:02:27.229Z,93.81
2022-09-15T01:04:58.397Z,93.94
2022-09-15T01:07:41.493Z,93.61
2022-09-15T01:10:14.408Z,93.45
2022-09-15T01:12:41.932Z,93.79
2022-09-15T01:15:09.298Z,95.24
2022-09-15T01:18:16.737Z,94.08
2022-09-15T01:21:05.033Z,94.55
2022-09-15T01:24:00.236Z,95.27
2022-09-15T01:26:43.182Z,95.25
2022-09-15T01:29:31.457Z,95.65
2022-09-15T01:32:27.392Z,95.38
2022-09-15T01:35:22.122Z,95.28
2022-09-15T01:38:04.489Z,94.59
2022-09-15T01:40:37.679Z,93.92
2022-09-15T01:43:06.604Z,94.17
2022-09-15T01:45:35.357Z,93.61
2022-09-15T01:48:05.409Z,93.31
2022-09-15T01:50:44.606Z,93.78
2022-09-15T01:53:17.732Z,94.02
2022-09-15T01:55:58.472Z,93.43
2022-09-15T01:58:25.254Z,94.15
2022-09-15T02:00:58.886Z,93.72
2022-09-15T02:03:29.820Z,94.67
2022-09-15T02:06:02.926Z,94.61
2022-09-15T02:08:47.622Z,95.03
2022-09-15T02:11:19.558Z,95.13
2022-09-15T02:14:11.365Z,95.60
2022-09-15T02:16:41.941Z,95.85
2022-09-15T02:19:41.931Z,95.82
2022-09-15T02:22:28.189Z,95.49
2022-09-15T02:25:03.276Z,95.75
2022-09-15T02:27:41.674Z,95.68
2022-09-15T02:30:12.479Z,95.77
2022-09-15T02:32:47.265Z,96.44
2022-09-15T02:35:16.895Z,96.46
2022-09-15T02:37:44.432Z,96.50
2022-09-15T02:40:11.462Z,97.27
2022-09-15T02:42:39.290Z,97.13
2022-09-15T02:45:06.566Z,96.91
2022-09-15T02:47:35.978Z,97.14
2022-09-15T02:50:02.691Z,96.94
2022-09-15T02:52:29.447Z,96.81
2022-09-15T02:54:56.186Z,96.83
2022-09-15T02:57:23.596Z,96.76
2022-09-15T03:00:08.757Z,98.13
2022-09-15T03:02:35.644Z,97.11
2022-09-15T03:05:02.731Z,96.14
2022-09-15T03:07:30.195Z,97.01
2022-09-15T03:09:56.829Z,96.66
2022-09-15T03:12:23.679Z,96.87
2022-09-15T03:14:50.713Z,96.93
2022-09-15T03:17:18.902Z,97.08
2022-09-15T03:19:45.588Z,96.91
2022-09-15T03:22:15.360Z,96.91
2022-09-15T03:24:42.703Z,96.61
2022-09-15T03:27:09.446Z,96.01
2022-09-15T03:29:36.450Z,96.13
2022-09-15T03:32:03.120Z,95.39
2022-09-15T03:34:29.678Z,95.36
2022-09-15T03:36:56.227Z,95.53
2022-09-15T03:39:22.892Z,94.33
2022-09-15T03:41:49.730Z,93.88
2022-09-15T03:44:17.378Z,94.55
2022-09-15T03:46:44.048Z,94.83
2022-09-15T03:49:10.658Z,94.67
2022-09-15T03:51:37.221Z,95.07
2022-09-15T03:54:03.934Z,94.68
2022-09-15T03:56:32.861Z,94.39
2022-09-15T03:59:05.608Z,94.32
2022-09-15T04:01:33.019Z,93.88
2022-09-15T04:03:59.909Z,93.88
2022-09-15T04:06:26.813Z,93.50
2022-09-15T04:08:54.641Z,93.53
2022-09-15T04:11:23.177Z,93.18
2022-09-15T04:13:50.436Z,92.96
2022-09-15T04:16:19.659Z,92.85
2022-09-15T04:18:46.540Z,92.58
2022-09-15T04:21:16.234Z,92.78
2022-09-15T04:23:44.237Z,92.62
2022-09-15T04:26:19.522Z,91.91
2022-09-15T04:28:46.090Z,91.87
2022-09-15T04:31:15.044Z,92.67
2022-09-15T04:33:43.491Z,92.43
2022-09-15T04:36:21.028Z,92.83
2022-09-15T04:38:48.343Z,91.95
2022-09-15T04:41:15.383Z,91.77
2022-09-15T04:43:43.361Z,91.82
2022-09-15T04:46:11.025Z,92.45
2022-09-15T04:48:37.914Z,92.85
2022-09-15T04:51:07.203Z,92.57
2022-09-15T04:53:35.184Z,92.76
2022-09-15T04:56:07.674Z,92.85
2022-09-15T04:58:58.233Z,93.21
2022-09-15T05:01:30.400Z,93.02
2022-09-15T05:03:57.335Z,93.09
2022-09-15T05:06:27.346Z,93.10
2022-09-15T05:08:56.599Z,93.00
2022-09-15T05:11:24.960Z,93.16
2022-09-15T05:13:51.715Z,92.72
2022-09-15T05:16:22.030Z,92.96
2022-09-15T05:18:50.952Z,93.34
2022-09-15T05:21:20.485Z,93.56
2022-09-15T05:23:48.078Z,93.63
2022-09-15T05:26:17.653Z,93.81
2022-09-15T05:28:44.966Z,94.34
2022-09-15T05:31:24.187Z,94.13
2022-09-15T05:33:53.148Z,94.39
2022-09-15T05:36:23.789Z,94.78
2022-09-15T05:38:51.663Z,94.15
2022-09-15T05:41:19.301Z,94.71
2022-09-15T05:43:47.991Z,94.16
2022-09-15T05:46:16.286Z,93.36
2022-09-15T05:48:43.011Z,93.14
2022-09-15T05:51:09.614Z,93.31
2022-09-15T05:53:37.101Z,93.46
2022-09-15T05:56:10.702Z,93.29
2022-09-15T05:58:38.998Z,93.36
2022-09-15T06:01:11.596Z,92.59
2022-09-15T06:03:38.146Z,92.64
2022-09-15T06:06:06.330Z,92.45
2022-09-15T06:08:34.820Z,91.88
2022-09-15T06:11:06.942Z,91.69
2022-09-15T06:13:35.519Z,91.28
2022-09-15T06:16:07.119Z,91.53
2022-09-15T06:18:36.237Z,91.54
2022-09-15T06:21:09.222Z,91.69
2022-09-15T06:23:37.045Z,91.14
2022-09-15T06:26:12.737Z,91.55
2022-09-15T06:28:42.250Z,91.35
2022-09-15T06:31:13.731Z,90.74
2022-09-15T06:33:45.769Z,90.07
2022-09-15T06:36:13.785Z,89.77
2022-09-15T06:38:41.380Z,89.76
2022-09-15T06:41:09.167Z,89.61
2022-09-15T06:43:36.443Z,88.91
2022-09-15T06:46:09.214Z,89.30
2022-09-15T06:48:36.984Z,88.81
2022-09-15T06:51:04.884Z,88.33
2022-09-15T06:53:33.148Z,88.14
2022-09-15T06:56:03.707Z,88.82
2022-09-15T06:58:31.189Z,88.33
2022-09-15T07:01:03.401Z,88.10
2022-09-15T07:03:30.710Z,87.86
2022-09-15T07:05:57.507Z,87.99
2022-09-15T07:08:24.174Z,87.96
2022-09-15T07:10:50.790Z,86.90
2022-09-15T07:13:17.737Z,86.94
2022-09-15T07:15:53.445Z,85.85
2022-09-15T07:18:20.266Z,85.77
2022-09-15T07:20:47.232Z,86.50
2022-09-15T07:23:16.184Z,87.22
2022-09-15T07:25:45.195Z,87.16
2022-09-15T07:28:15.231Z,85.60
2022-09-15T07:30:43.744Z,85.08
2022-09-15T07:33:13.398Z,85.19
2022-09-15T07:35:44.347Z,84.81
2022-09-15T07:38:12.894Z,84.77
2022-09-15T07:40:40.178Z,84.85
2022-09-15T07:43:06.756Z,84.20
2022-09-15T07:45:35.570Z,83.66
2022-09-15T07:48:02.642Z,84.26
2022-09-15T07:50:29.663Z,84.17
2022-09-15T07:53:00.423Z,83.56
2022-09-15T07:55:27.911Z,84.46
2022-09-15T07:57:59.390Z,84.77
2022-09-15T08:00:26.721Z,83.22
2022-09-15T08:02:53.845Z,83.09
2022-09-15T08:05:20.695Z,82.42
2022-09-15T08:07:47.642Z,84.42
2022-09-15T08:10:15.773Z,84.44
2022-09-15T08:12:42.494Z,86.81
2022-09-15T08:15:09.608Z,85.16
2022-09-15T08:17:36.338Z,84.54
2022-09-15T08:20:04.167Z,85.25
2022-09-15T08:22:30.853Z,83.53
2022-09-15T08:24:57.691Z,84.20
2022-09-15T08:27:24.523Z,84.01
2022-09-15T08:29:51.903Z,84.74
2022-09-15T08:32:19.002Z,85.29
2022-09-15T08:34:45.801Z,83.03
2022-09-15T08:37:12.702Z,83.20
2022-09-15T08:39:39.383Z,82.06
2022-09-15T08:42:06.538Z,81.38
2022-09-15T08:44:51.983Z,81.65
2022-09-15T08:47:31.942Z,82.52
2022-09-15T08:50:05.490Z,81.08
2022-09-15T08:52:35.499Z,79.31
2022-09-15T08:55:25.333Z,78.38
2022-09-15T08:57:55.799Z,77.80
2022-09-15T09:00:26.974Z,76.85
2022-09-15T09:03:31.166Z,78.46
2022-09-15T09:06:19.952Z,75.69
2022-09-15T09:09:00.198Z,76.78
2022-09-15T09:11:51.939Z,76.74
2022-09-15T09:14:36.938Z,77.70
2022-09-15T09:17:18.618Z,77.12
2022-09-15T09:19:55.695Z,76.46
2022-09-15T09:22:31.677Z,76.94
2022-09-15T09:25:05.889Z,77.25
2022-09-15T09:27:43.433Z,77.04
2022-09-15T09:30:22.741Z,77.73
2022-09-15T09:33:04.933Z,80.12
2022-09-15T09:35:43.751Z,81.29
2022-09-15T09:38:12.482Z,83.06
2022-09-15T09:40:43.114Z,83.37
2022-09-15T09:43:10.880Z,84.37
2022-09-15T09:45:37.800Z,84.39
2022-09-15T09:48:20.403Z,84.68
2022-09-15T09:50:48.006Z,90.40
2022-09-15T09:53:34.286Z,92.04
2022-09-15T09:56:17.031Z,94.91
2022-09-15T09:58:44.816Z,97.21
2022-09-15T10:01:20.002Z,98.25
2022-09-15T10:03:47.455Z,96.34
2022-09-15T10:06:22.125Z,97.61
2022-09-15T10:08:53.445Z,96.72
2022-09-15T10:11:20.234Z,94.12
2022-09-15T10:13:53.398Z,94.66
2022-09-15T10:16:21.398Z,95.03
2022-09-15T10:18:54.291Z,95.10
2022-09-15T10:21:25.156Z,95.52
2022-09-15T10:23:52.276Z,93.30
2022-09-15T10:26:22.433Z,90.98
2022-09-15T10:29:13.247Z,90.80
2022-09-15T10:31:41.075Z,91.67
2022-09-15T10:34:27.809Z,91.42
2022-09-15T10:37:13.270Z,91.36
2022-09-15T10:39:52.699Z,88.53
2022-09-15T10:42:32.450Z,88.05
2022-09-15T10:45:24.077Z,87.18
2022-09-15T10:48:18.611Z,86.73
2022-09-15T10:50:55.053Z,86.70
2022-09-15T10:53:37.196Z,88.27
2022-09-15T10:56:19.688Z,82.34
2022-09-15T10:59:00.582Z,81.79
2022-09-15T11:01:30.244Z,78.81
2022-09-15T11:04:34.068Z,81.07
2022-09-15T11:07:09.798Z,79.88
2022-09-15T11:10:02.224Z,77.74
2022-09-15T11:12:55.425Z,78.49
2022-09-15T11:15:30.967Z,79.33
2022-09-15T11:18:19.495Z,72.93
2022-09-15T11:21:07.986Z,78.00
2022-09-15T11:23:40.140Z,76.33
2022-09-15T11:26:19.498Z,76.60
2022-09-15T11:28:57.948Z,77.39
2022-09-15T11:31:34.400Z,77.20
2022-09-15T11:34:14.848Z,75.78
2022-09-15T11:36:55.279Z,76.71
2022-09-15T11:39:36.576Z,76.97
2022-09-15T11:42:44.893Z,71.95
2022-09-15T11:45:20.323Z,71.94
2022-09-15T11:47:52.789Z,72.77
2022-09-15T11:50:24.873Z,72.93
2022-09-15T11:53:12.147Z,69.59
2022-09-15T11:55:47.971Z,69.31
2022-09-15T11:58:33.995Z,64.15
2022-09-15T12:01:22.561Z,69.51
2022-09-15T12:04:02.590Z,69.29
2022-09-15T12:06:51.186Z,67.69
2022-09-15T12:09:20.036Z,68.31
2022-09-15T12:11:49.675Z,64.70
2022-09-15T12:14:40.701Z,63.18
2022-09-15T12:17:13.489Z,68.34
2022-09-15T12:19:49.913Z,68.28
2022-09-15T12:22:24.069Z,60.76
2022-09-15T12:25:03.825Z,61.62
2022-09-15T12:27:30.521Z,56.83
2022-09-15T12:30:00.260Z,51.46
2022-09-15T12:32:28.747Z,56.50
2022-09-15T12:34:59.787Z,56.06
2022-09-15T12:37:34.396Z,53.50
2022-09-15T12:40:02.067Z,52.32
2022-09-15T12:42:31.395Z,49.59
2022-09-15T12:45:09.353Z,49.58
2022-09-15T12:47:40.622Z,52.54
2022-09-15T12:50:22.834Z,49.93
2022-09-15T12:53:14.617Z,48.69
2022-09-15T12:55:55.687Z,48.34
2022-09-15T12:58:33.212Z,49.17
2022-09-15T13:01:23.606Z,50.07
2022-09-15T13:03:50.827Z,50.09
2022-09-15T13:06:20.803Z,50.69
2022-09-15T13:08:47.390Z,50.56
2022-09-15T13:11:23.111Z,50.89
2022-09-15T13:13:58.745Z,48.18
2022-09-15T13:16:34.610Z,51.71
2022-09-15T13:19:14.003Z,47.86
2022-09-15T13:21:45.043Z,46.78
2022-09-15T13:24:21.591Z,46.56
2022-09-15T13:26:52.986Z,47.59
2022-09-15T13:29:21.098Z,49.54
2022-09-15T13:32:08.005Z,47.10
2022-09-15T13:35:13.205Z,46.12
2022-09-15T13:38:16.956Z,48.42
2022-09-15T13:41:23.470Z,47.18
2022-09-15T13:44:18.107Z,50.15
2022-09-15T13:47:10.632Z,48.54
2022-09-15T13:49:37.838Z,48.76
2022-09-15T13:52:22.155Z,50.39
2022-09-15T13:55:26.282Z,49.93
2022-09-15T14:01:05.825Z,49.10
2022-09-15T14:03:50.650Z,51.93
2022-09-15T14:06:30.213Z,50.68
2022-09-15T14:09:02.074Z,52.46
2022-09-15T14:11:31.330Z,54.24
2022-09-15T14:14:00.763Z,54.93
2022-09-15T14:16:29.876Z,54.82
2022-09-15T14:18:58.624Z,54.28
2022-09-15T14:21:33.906Z,53.72
2022-09-15T14:24:14.590Z,54.89
2022-09-15T14:26:41.427Z,54.41
2022-09-15T14:29:18.938Z,54.70
2022-09-15T14:31:45.793Z,56.38
2022-09-15T14:34:20.705Z,56.08
2022-09-15T14:37:04.332Z,56.31
2022-09-15T14:39:31.332Z,57.81
2022-09-15T14:47:28.898Z,55.33
2022-09-15T14:50:21.512Z,56.80
2022-09-15T14:53:08.636Z,56.13
2022-09-15T14:55:46.418Z,56.77
2022-09-15T14:58:20.966Z,55.46
2022-09-15T15:01:03.720Z,56.56
2022-09-15T15:03:56.560Z,57.66
2022-09-15T15:06:32.430Z,59.16
2022-09-15T15:09:21.566Z,56.54
2022-09-15T15:11:53.086Z,58.63
2022-09-15T15:14:19.993Z,59.34
2022-09-15T15:16:58.938Z,58.88
2022-09-15T15:19:40.733Z,59.66
2022-09-15T15:22:16.629Z,59.66
2022-09-15T15:24:46.207Z,59.94
2022-09-15T15:27:26.057Z,60.06
2022-09-15T15:29:52.883Z,60.80
2022-09-15T15:32:25.092Z,60.02
2022-09-15T15:35:00.842Z,60.69
2022-09-15T15:37:34.329Z,59.16
2022-09-15T15:40:02.025Z,57.58
2022-09-15T15:42:29.492Z,58.62
2022-09-15T15:45:02.957Z,58.06
2022-09-15T15:47:35.686Z,58.29
2022-09-15T15:50:14.062Z,57.50
2022-09-15T15:52:42.232Z,58.40
2022-09-15T15:55:13.732Z,57.24
2022-09-15T15:57:40.928Z,57.93
2022-09-15T16:00:16.620Z,58.07
2022-09-15T16:02:47.215Z,57.32
2022-09-15T16:05:14.422Z,59.07
2022-09-15T16:07:44.636Z,58.73
2022-09-15T16:10:19.416Z,59.42
2022-09-15T16:12:46.047Z,60.11
2022-09-15T16:15:18.527Z,61.19
2022-09-15T16:17:47.058Z,61.81
2022-09-15T16:20:19.632Z,62.82
2022-09-15T16:22:46.757Z,63.20
2022-09-15T16:25:15.925Z,63.48
2022-09-15T16:27:42.539Z,64.39
2022-09-15T16:30:12.014Z,64.82
2022-09-15T16:32:40.468Z,66.59
2022-09-15T16:35:39.939Z,67.46
2022-09-15T16:38:08.128Z,67.84
2022-09-15T16:40:36.980Z,68.27
2022-09-15T16:43:09.089Z,67.96
2022-09-15T16:45:40.526Z,68.43
2022-09-15T16:48:09.464Z,68.46
2022-09-15T16:50:37.828Z,68.11
2022-09-15T16:53:06.757Z,68.30
2022-09-15T16:55:48.530Z,67.59
2022-09-15T16:58:16.385Z,68.38
2022-09-15T17:00:45.191Z,67.63
2022-09-15T17:03:16.462Z,68.51
2022-09-15T17:05:49.973Z,68.79
2022-09-15T17:08:18.865Z,69.73
2022-09-15T17:10:46.970Z,69.01
2022-09-15T17:13:20.455Z,69.91
2022-09-15T17:15:47.288Z,69.95
2022-09-15T17:18:15.572Z,70.41
2022-09-15T17:20:43.825Z,69.94
2022-09-15T17:23:28.594Z,70.36
2022-09-15T17:25:59.938Z,70.22
2022-09-15T17:28:31.702Z,70.82
2022-09-15T17:31:04.672Z,70.73
2022-09-15T17:33:32.762Z,70.68
2022-09-15T17:36:00.311Z,71.08
2022-09-15T17:38:27.169Z,70.77
2022-09-15T17:40:57.665Z,70.77
2022-09-15T17:43:27.352Z,70.97
2022-09-15T17:45:55.326Z,72.19
2022-09-15T17:48:22.567Z,71.80
2022-09-15T17:50:50.299Z,72.08
2022-09-15T17:53:26.887Z,72.66
2022-09-15T17:55:55.128Z,72.94
2022-09-15T17:58:23.391Z,72.16
2022-09-15T18:00:50.494Z,71.72
2022-09-15T18:03:29.000Z,71.48
2022-09-15T18:05:58.411Z,71.95
2022-09-15T18:08:25.977Z,71.51
2022-09-15T18:10:52.767Z,71.79
2022-09-15T18:13:22.187Z,71.91
2022-09-15T18:15:49.507Z,71.89
2022-09-15T18:18:21.405Z,73.38
2022-09-15T18:20:49.872Z,74.55
2022-09-15T18:23:18.781Z,74.75
2022-09-15T18:25:47.156Z,74.23
2022-09-15T18:28:15.422Z,74.54
2022-09-15T18:30:45.118Z,75.02
2022-09-15T18:33:20.304Z,75.59
2022-09-15T18:35:53.961Z,78.58
2022-09-15T18:38:21.762Z,77.79
2022-09-15T18:40:53.295Z,77.71
2022-09-15T18:43:21.306Z,78.20
2022-09-15T18:45:48.380Z,78.38
2022-09-15T18:48:15.459Z,78.59
2022-09-15T18:50:44.662Z,77.61
2022-09-15T18:53:12.258Z,78.08
2022-09-15T18:55:42.076Z,77.48
2022-09-15T18:58:09.418Z,76.66
2022-09-15T19:00:36.163Z,76.13
2022-09-15T19:03:05.533Z,76.18
2022-09-15T19:05:32.488Z,76.01
2022-09-15T19:07:59.206Z,76.22
2022-09-15T19:10:26.816Z,75.45
2022-09-15T19:12:54.342Z,75.59
2022-09-15T19:15:24.518Z,75.94
2022-09-15T19:17:51.661Z,75.30
2022-09-15T19:20:18.619Z,75.86
2022-09-15T19:22:46.069Z,77.09
2022-09-15T19:25:13.445Z,77.77
2022-09-15T19:27:40.668Z,77.22
2022-09-15T19:30:09.960Z,78.25
2022-09-15T19:32:38.244Z,77.76
2022-09-15T19:35:05.367Z,78.21
2022-09-15T19:37:35.452Z,78.42
2022-09-15T19:40:03.509Z,80.40
2022-09-15T19:42:30.288Z,80.48
2022-09-15T19:44:57.267Z,81.12
2022-09-15T19:47:24.532Z,80.25
2022-09-15T19:49:52.018Z,82.33
2022-09-15T19:52:20.110Z,81.90
2022-09-15T19:54:47.796Z,82.19
2022-09-15T19:57:14.870Z,82.79
2022-09-15T19:59:41.638Z,82.34
2022-09-15T20:02:10.384Z,81.58
2022-09-15T20:04:38.970Z,81.59
2022-09-15T20:07:05.980Z,80.78
2022-09-15T20:09:33.275Z,82.44
2022-09-15T20:12:03.222Z,81.63
2022-09-15T20:14:31.498Z,80.82
2022-09-15T20:17:01.099Z,81.28
2022-09-15T20:19:28.656Z,80.23
2022-09-15T20:21:55.761Z,81.71
2022-09-15T20:24:23.894Z,81.45
2022-09-15T20:26:51.655Z,83.36
2022-09-15T20:29:19.435Z,83.42
2022-09-15T20:31:46.331Z,83.46
2022-09-15T20:34:13.092Z,82.01
2022-09-15T20:36:40.319Z,83.04
2022-09-15T20:39:13.467Z,83.43
2022-09-15T20:41:44.839Z,83.06
2022-09-15T20:44:11.855Z,82.69
2022-09-15T20:46:38.552Z,83.17
2022-09-15T20:49:08.395Z,83.13
2022-09-15T20:51:35.455Z,83.87
2022-09-15T20:54:04.936Z,83.48
2022-09-15T20:56:35.352Z,83.65
2022-09-15T20:59:04.469Z,83.99
2022-09-15T21:01:37.031Z,83.99
2022-09-15T21:04:05.146Z,82.77
2022-09-15T21:06:32.476Z,82.97
2022-09-15T21:09:00.146Z,82.69
2022-09-15T21:11:28.169Z,83.32
2022-09-15T21:13:55.947Z,83.10
2022-09-15T21:16:25.839Z,83.32
2022-09-15T21:18:53.209Z,83.10
2022-09-15T21:21:31.785Z,83.41
2022-09-15T21:24:03.584Z,83.45
2022-09-15T21:26:36.190Z,84.31
2022-09-15T21:29:02.894Z,83.70
2022-09-15T21:31:32.560Z,84.26
2022-09-15T21:34:00.171Z,84.57
2022-09-15T21:36:29.556Z,84.61
2022-09-15T21:38:59.445Z,85.77
2022-09-15T21:41:30.282Z,86.30
2022-09-15T21:43:59.034Z,87.20
2022-09-15T21:46:28.353Z,86.50
2022-09-15T21:48:57.599Z,87.57
2022-09-15T21:51:26.253Z,89.19
2022-09-15T21:53:54.405Z,89.08
2022-09-15T21:56:22.467Z,90.13
2022-09-15T21:58:49.383Z,90.91
2022-09-15T22:01:23.371Z,93.47
2022-09-15T22:03:55.925Z,91.88
2022-09-15T22:06:27.802Z,91.59
2022-09-15T22:08:55.376Z,92.49
2022-09-15T22:11:23.240Z,91.24
2022-09-15T22:13:50.769Z,92.01
2022-09-15T22:16:20.059Z,92.27
2022-09-15T22:18:47.577Z,92.91
2022-09-15T22:21:17.458Z,92.76
2022-09-15T22:23:45.597Z,92.25
2022-09-15T22:26:21.427Z,93.30
2022-09-15T22:28:48.535Z,93.27
2022-09-15T22:31:18.044Z,92.47
2022-09-15T22:33:45.459Z,92.57
2022-09-15T22:36:32.572Z,92.98
2022-09-15T22:39:06.689Z,91.23
2022-09-15T22:41:39.254Z,91.48
2022-09-15T22:44:07.394Z,91.22
2022-09-15T22:46:34.689Z,90.76
2022-09-15T22:49:02.236Z,91.79
2022-09-15T22:51:29.129Z,91.54
2022-09-15T22:53:56.881Z,90.10
2022-09-15T22:56:25.937Z,90.93
2022-09-15T22:58:53.152Z,90.80
2022-09-15T23:01:25.664Z,90.61
2022-09-15T23:04:02.510Z,90.11
2022-09-15T23:06:32.106Z,89.47
2022-09-15T23:09:03.456Z,89.42
2022-09-15T23:11:34.055Z,89.18
2022-09-15T23:14:00.759Z,89.21
2022-09-15T23:16:31.465Z,89.13
2022-09-15T23:18:58.489Z,88.76
2022-09-15T23:21:28.300Z,88.84
2022-09-15T23:23:55.139Z,88.36
2022-09-15T23:26:24.025Z,88.32
2022-09-15T23:28:50.840Z,87.52
2022-09-15T23:31:20.978Z,87.02
2022-09-15T23:33:48.345Z,87.19
2022-09-15T23:36:19.590Z,86.96
2022-09-15T23:38:47.757Z,87.27
2022-09-15T23:41:15.840Z,86.93
2022-09-15T23:43:42.557Z,87.36
2022-09-15T23:46:30.675Z,87.86
2022-09-15T23:49:24.858Z,87.50
2022-09-15T23:52:31.268Z,87.46
2022-09-15T23:55:13.069Z,87.12
2022-09-15T23:57:48.104Z,86.65
